Time;durP1;ratioP1;P1;durP2;ratioP2;P2;SDS_P1;SDS_P2;PMS_P1;PMS_P2;Temp;Humidity;BMP_temperature;BMP_pressure;BME280_temperature;BME280_humidity;BME280_pressure;Samples;Min_cycle;Max_cycle;Signal;HPM_P1;HPM_P2
2023/07/14 00:02:09;;;;;;;;;7.00;6.00;;;;;25.71;36.23;101327.34;4923520;28;50260;-54
2023/07/14 00:04:41;;;;;;;;;5.75;4.50;;;;;25.71;35.88;101327.34;4923142;28;45727;-53
2023/07/14 00:07:12;;;;;;;;;6.25;5.00;;;;;25.70;36.53;101321.16;4926798;28;45587;-55
2023/07/14 00:09:42;;;;;;;;;8.25;5.25;;;;;25.69;36.11;101311.50;4923101;28;45287;-54
2023/07/14 00:12:08;;;;;;;;;6.75;6.25;;;;;25.70;36.54;101312.38;4922786;28;45582;-54
2023/07/14 00:14:33;;;;;;;;;8.50;8.00;;;;;25.70;36.23;101317.69;4922607;28;45454;-55
2023/07/14 00:16:58;;;;;;;;;6.75;6.25;;;;;25.69;36.21;101308.03;4925148;28;59950;-54
2023/07/14 00:19:25;;;;;;;;;6.00;6.00;;;;;25.69;36.21;101302.72;4922606;28;45338;-56
2023/07/14 00:21:51;;;;;;;;;6.00;4.50;;;;;25.69;36.36;101300.88;4923163;28;47276;-54
2023/07/14 00:24:20;;;;;;;;;7.25;5.50;;;;;25.70;36.58;101299.94;4927876;28;64998;-54
2023/07/14 00:26:49;;;;;;;;;8.00;6.00;;;;;25.69;36.36;101298.22;4928202;28;45313;-53
2023/07/14 00:29:30;;;;;;;;;7.75;5.00;;;;;25.71;36.58;101306.09;4925331;28;45312;-55
2023/07/14 00:31:57;;;;;;;;;5.00;5.00;;;;;25.71;36.51;101306.09;4922443;28;45395;-53
2023/07/14 00:34:23;;;;;;;;;5.00;5.00;;;;;25.71;36.33;101303.47;4904790;28;45834;-55
2023/07/14 00:36:48;;;;;;;;;4.75;4.75;;;;;25.70;36.16;101301.75;4926183;28;45331;-54
2023/07/14 00:39:13;;;;;;;;;6.25;4.50;;;;;25.68;36.26;101293.91;4924754;28;54246;-55
2023/07/14 00:41:39;;;;;;;;;4.00;4.00;;;;;25.68;36.68;101293.03;4929622;28;58421;-54
2023/07/14 00:44:05;;;;;;;;;6.50;3.50;;;;;25.68;36.51;101304.53;4930052;28;45413;-53
2023/07/14 00:46:33;;;;;;;;;4.25;4.00;;;;;25.67;36.16;101299.31;4929492;28;46605;-55
2023/07/14 00:49:06;;;;;;;;;5.75;4.00;;;;;25.67;36.40;101288.69;4928811;28;45581;-55
2023/07/14 00:51:35;;;;;;;;;5.00;5.00;;;;;25.67;36.66;101284.25;4926773;28;46295;-54
2023/07/14 00:54:00;;;;;;;;;7.00;3.00;;;;;25.67;36.48;101280.72;4923126;28;45281;-55
2023/07/14 00:56:47;;;;;;;;;4.50;4.25;;;;;25.67;36.25;101288.69;4888917;28;45736;-55
2023/07/14 00:59:15;;;;;;;;;5.00;3.75;;;;;25.66;36.50;101290.50;4924759;28;45444;-56
2023/07/14 01:02:20;;;;;;;;;4.75;4.00;;;;;25.66;36.17;101279.03;4923896;28;46416;-54
2023/07/14 01:04:57;;;;;;;;;6.25;5.75;;;;;25.67;36.40;101278.94;4925363;28;45462;-54
2023/07/14 01:07:29;;;;;;;;;4.25;4.25;;;;;25.65;36.69;101258.75;4923381;28;45355;-54
2023/07/14 01:09:58;;;;;;;;;5.00;5.00;;;;;25.65;36.87;101267.56;4906695;28;45411;-54
2023/07/14 01:12:26;;;;;;;;;4.50;4.00;;;;;25.64;36.79;101265.88;4921682;28;45426;-56
2023/07/14 01:14:54;;;;;;;;;4.25;4.25;;;;;25.64;36.38;101263.22;4922141;28;45763;-55
2023/07/14 01:17:21;;;;;;;;;7.00;6.00;;;;;25.65;36.29;101264.06;4922619;28;45360;-55
2023/07/14 01:19:59;;;;;;;;;10.00;5.00;;;;;25.65;36.37;101253.44;4922844;28;45489;-55
2023/07/14 01:22:47;;;;;;;;;5.00;4.00;;;;;25.62;36.33;101255.38;4922221;28;45494;-55
2023/07/14 01:25:28;;;;;;;;;6.75;5.25;;;;;25.63;36.66;101262.34;4926096;28;45706;-56
2023/07/14 01:27:53;;;;;;;;;5.75;5.00;;;;;25.61;36.60;101245.72;4932788;28;45237;-54
2023/07/14 01:30:20;;;;;;;;;7.25;5.50;;;;;25.61;36.61;101245.72;4931001;28;45165;-55
2023/07/14 01:32:48;;;;;;;;;7.25;5.50;;;;;25.62;36.19;101239.44;4934682;28;46847;-54
2023/07/14 01:35:16;;;;;;;;;6.50;6.00;;;;;25.62;36.31;101231.50;4922331;28;45700;-55
2023/07/14 01:37:42;;;;;;;;;6.50;5.75;;;;;25.60;36.59;101228.09;4923817;28;45324;-55
2023/07/14 01:40:12;;;;;;;;;7.50;6.25;;;;;25.61;36.93;101232.44;4931106;28;45398;-54
2023/07/14 01:42:51;;;;;;;;;6.25;6.25;;;;;25.61;36.26;101227.13;4926775;28;46406;-55
2023/07/14 01:45:18;;;;;;;;;7.00;5.50;;;;;25.60;36.21;101236.06;4925834;28;45739;-55
2023/07/14 01:47:49;;;;;;;;;6.00;6.00;;;;;25.59;36.96;101234.34;4925534;28;45417;-55
2023/07/14 01:50:25;;;;;;;;;7.75;7.00;;;;;25.56;36.32;101223.94;4927246;28;45531;-54
2023/07/14 01:52:55;;;;;;;;;6.25;6.00;;;;;25.52;36.71;101229.56;4925156;28;46533;-54
2023/07/14 01:55:23;;;;;;;;;8.75;7.25;;;;;25.48;37.10;101231.59;4928663;28;45216;-56
2023/07/14 01:57:54;;;;;;;;;7.25;7.00;;;;;25.44;36.86;101219.50;4931421;28;45459;-55
2023/07/14 02:00:20;;;;;;;;;9.75;7.75;;;;;25.42;36.69;101216.97;4937001;28;45231;-54
2023/07/14 02:02:46;;;;;;;;;8.75;8.50;;;;;25.38;37.21;101210.13;4937372;28;47307;-55
2023/07/14 02:05:23;;;;;;;;;10.25;9.00;;;;;25.37;36.81;101208.44;4938331;28;45313;-55
2023/07/14 02:07:48;;;;;;;;;11.75;9.75;;;;;25.37;37.28;101218.22;4942654;28;45360;-55
2023/07/14 02:10:18;;;;;;;;;9.75;9.50;;;;;25.32;37.39;101216.72;4939436;28;45240;-55
2023/07/14 02:12:46;;;;;;;;;10.50;8.50;;;;;25.32;37.38;101224.69;4942117;28;46724;-55
2023/07/14 02:15:17;;;;;;;;;11.00;11.00;;;;;25.30;37.19;101209.84;4937889;28;45239;-55
2023/07/14 02:17:45;;;;;;;;;10.75;10.75;;;;;25.29;36.84;101216.94;4928252;28;45216;-54
2023/07/14 02:20:18;;;;;;;;;11.75;10.00;;;;;25.25;37.07;101212.81;4928760;28;45185;-54
2023/07/14 02:22:45;;;;;;;;;7.25;7.25;;;;;25.25;37.33;101215.47;4908653;28;47903;-54
2023/07/14 02:25:15;;;;;;;;;9.75;9.75;;;;;25.25;37.09;101217.25;4921591;28;45245;-52
2023/07/14 02:27:40;;;;;;;;;11.50;7.75;;;;;25.22;37.04;101215.66;4921510;28;45405;-53
2023/07/14 02:30:20;;;;;;;;;9.50;8.50;;;;;25.21;37.69;101219.28;4932708;28;45254;-54
2023/07/14 02:32:59;;;;;;;;;10.25;9.50;;;;;25.19;37.30;101220.34;4926130;28;45525;-55
2023/07/14 02:35:44;;;;;;;;;9.75;8.50;;;;;25.15;37.15;101217.88;4944070;28;45246;-54
2023/07/14 02:38:14;;;;;;;;;10.25;9.75;;;;;25.13;37.44;101218.97;4926405;28;45475;-55
2023/07/14 02:41:04;;;;;;;;;10.00;9.00;;;;;25.10;37.21;101212.06;4921291;28;45439;-57
2023/07/14 02:43:29;;;;;;;;;10.00;9.25;;;;;25.06;37.43;101207.91;4921054;28;45684;-55
2023/07/14 02:46:19;;;;;;;;;12.00;9.25;;;;;25.04;37.36;101201.88;4926987;28;45283;-54
2023/07/14 02:48:48;;;;;;;;;10.25;10.25;;;;;25.01;37.89;101210.06;4873352;28;45431;-53
2023/07/14 02:51:14;;;;;;;;;5.00;4.25;;;;;24.98;38.08;101208.44;4920723;28;45617;-54
2023/07/14 02:53:39;;;;;;;;;10.25;9.50;;;;;24.97;37.61;101201.44;4923803;28;45468;-54
2023/07/14 02:56:05;;;;;;;;;11.75;9.00;;;;;24.98;37.77;101205.78;4924761;28;45423;-55
2023/07/14 02:58:32;;;;;;;;;14.25;12.75;;;;;24.96;37.48;101197.13;4920822;28;45267;-54
2023/07/14 03:00:58;;;;;;;;;8.25;8.25;;;;;24.95;37.67;101200.72;4903845;28;45677;-54
2023/07/14 03:03:23;;;;;;;;;9.25;8.25;;;;;24.94;38.10;101199.03;4923092;28;46152;-56
2023/07/14 03:05:50;;;;;;;;;12.50;9.75;;;;;24.92;38.08;101200.94;4920088;28;45236;-53
2023/07/14 03:08:16;;;;;;;;;11.00;9.00;;;;;24.95;38.18;101202.50;4920744;28;45412;-55
2023/07/14 03:10:43;;;;;;;;;9.75;9.75;;;;;24.95;38.23;101192.78;4920161;28;45596;-53
2023/07/14 03:13:09;;;;;;;;;9.00;8.25;;;;;24.95;38.24;101186.59;4930891;28;45611;-53
2023/07/14 03:15:34;;;;;;;;;13.25;9.00;;;;;24.95;38.30;101181.31;4922730;28;45256;-53
2023/07/14 03:18:00;;;;;;;;;9.25;8.00;;;;;24.94;37.72;101182.25;4919154;28;54578;-54
2023/07/14 03:20:25;;;;;;;;;7.00;7.00;;;;;24.93;38.38;101173.47;4920528;28;45438;-54
2023/07/14 03:22:50;;;;;;;;;5.00;5.00;;;;;24.93;38.20;101167.28;4921513;28;45340;-55
2023/07/14 03:25:16;;;;;;;;;8.00;7.25;;;;;24.89;37.89;101166.66;4921514;28;45335;-55
2023/07/14 03:27:43;;;;;;;;;8.00;8.00;;;;;24.90;37.79;101171.00;4919713;28;45379;-53
2023/07/14 03:30:10;;;;;;;;;8.00;8.00;;;;;24.89;38.19;101171.97;4923407;28;45285;-54
2023/07/14 03:32:35;;;;;;;;;7.75;6.00;;;;;24.88;38.24;101175.56;4925482;28;45708;-55
2023/07/14 03:35:01;;;;;;;;;7.25;7.00;;;;;24.87;38.02;101173.88;4924312;28;45243;-53
2023/07/14 03:37:26;;;;;;;;;7.25;6.00;;;;;24.87;38.21;101163.25;4920088;28;45353;-55
2023/07/14 03:39:51;;;;;;;;;9.00;6.25;;;;;24.88;38.02;101158.81;4923639;28;45347;-55
2023/07/14 03:42:16;;;;;;;;;8.00;6.50;;;;;24.89;38.39;101165.81;4926266;28;45243;-54
2023/07/14 03:44:42;;;;;;;;;5.50;5.50;;;;;24.87;38.48;101160.59;4920888;28;54383;-55
2023/07/14 03:47:07;;;;;;;;;7.25;6.00;;;;;24.87;38.07;101163.25;4919175;28;45560;-54
2023/07/14 03:49:32;;;;;;;;;4.50;1.75;;;;;24.85;38.47;101159.88;4919930;28;45593;-55
2023/07/14 03:51:58;;;;;;;;;7.00;5.25;;;;;24.81;38.04;101147.78;4902952;28;47402;-54
2023/07/14 03:54:23;;;;;;;;;5.00;5.00;;;;;24.81;38.54;101150.44;4921868;28;45395;-54
2023/07/14 03:56:52;;;;;;;;;7.25;4.25;;;;;24.80;38.05;101143.44;4920274;28;55390;-56
2023/07/14 03:59:17;;;;;;;;;7.50;6.25;;;;;24.79;38.18;101144.38;4926082;28;45246;-55
2023/07/14 04:01:43;;;;;;;;;5.75;5.25;;;;;24.79;38.28;101141.75;4911403;28;46662;-55
2023/07/14 04:04:08;;;;;;;;;8.00;4.75;;;;;24.79;38.32;101149.69;4936897;28;54019;-55
2023/07/14 04:06:34;;;;;;;;;6.50;5.00;;;;;24.79;38.66;101145.25;4939872;28;44556;-55
2023/07/14 04:09:00;;;;;;;;;6.00;4.50;;;;;24.78;38.30;101142.69;4936774;28;44836;-57
2023/07/14 04:11:26;;;;;;;;;4.50;4.50;;;;;24.78;38.67;101148.00;4924280;28;45493;-55
2023/07/14 04:13:52;;;;;;;;;8.25;5.25;;;;;24.76;38.19;101148.13;4919948;28;45366;-55
2023/07/14 04:16:18;;;;;;;;;6.00;6.00;;;;;24.76;38.46;101144.59;4923481;28;47687;-54
2023/07/14 04:18:43;;;;;;;;;8.50;7.00;;;;;24.73;38.45;101131.56;4919731;28;45453;-53
2023/07/14 04:21:11;;;;;;;;;5.25;5.00;;;;;24.75;39.03;101137.63;4919505;28;55860;-55
2023/07/14 04:23:37;;;;;;;;;5.25;5.25;;;;;24.75;38.79;101132.31;4919034;28;45763;-53
2023/07/14 04:26:03;;;;;;;;;7.00;6.25;;;;;24.74;38.38;101138.56;4920371;28;45451;-53
2023/07/14 04:28:28;;;;;;;;;9.25;5.75;;;;;24.71;38.99;101136.97;4921539;28;45314;-55
2023/07/14 04:30:58;;;;;;;;;11.25;7.50;;;;;24.69;39.10;101130.94;4921997;28;46330;-53
2023/07/14 04:33:24;;;;;;;;;8.25;6.75;;;;;24.67;39.04;101133.66;4922102;28;45769;-54
2023/07/14 04:35:51;;;;;;;;;6.00;6.00;;;;;24.66;38.82;101128.47;4924228;28;45519;-54
2023/07/14 04:38:18;;;;;;;;;6.00;6.00;;;;;24.65;38.88;101121.47;4928036;28;45455;-53
2023/07/14 04:40:44;;;;;;;;;6.00;6.00;;;;;24.65;39.05;101127.59;4924716;28;46631;-55
2023/07/14 04:43:10;;;;;;;;;7.00;6.75;;;;;24.66;39.16;101123.16;4906029;28;45384;-54
2023/07/14 04:45:40;;;;;;;;;10.00;6.50;;;;;24.66;38.73;101110.75;4927067;28;45245;-56
2023/07/14 04:48:07;;;;;;;;;10.00;8.50;;;;;24.64;38.35;101115.28;4928090;28;45447;-55
2023/07/14 04:50:33;;;;;;;;;8.75;8.00;;;;;24.63;38.58;101110.09;4922865;28;45412;-55
2023/07/14 04:52:59;;;;;;;;;12.00;10.00;;;;;24.60;38.44;101113.81;4921974;28;45647;-55
2023/07/14 04:55:28;;;;;;;;;10.00;8.00;;;;;24.64;38.86;101111.81;4921992;28;45221;-55
2023/07/14 04:57:54;;;;;;;;;7.50;7.00;;;;;24.65;39.08;101102.91;4922489;28;45355;-54
2023/07/14 05:00:20;;;;;;;;;7.75;7.75;;;;;24.64;38.96;101082.66;4924520;28;45403;-54
2023/07/14 05:02:46;;;;;;;;;5.75;4.75;;;;;24.65;39.17;101084.34;4922429;28;45323;-55
2023/07/14 05:05:20;;;;;;;;;7.25;6.25;;;;;24.61;38.76;101078.44;4927420;28;45473;-58
2023/07/14 05:07:47;;;;;;;;;8.50;7.00;;;;;24.59;38.66;101075.03;4927877;28;45328;-54
2023/07/14 05:10:12;;;;;;;;;8.00;7.00;;;;;24.57;39.16;101065.50;4924489;28;47306;-55
2023/07/14 05:12:37;;;;;;;;;7.50;6.50;;;;;24.56;38.91;101059.34;4930206;28;45193;-53
2023/07/14 05:15:10;;;;;;;;;6.75;6.75;;;;;24.57;38.66;101049.59;4944554;28;44749;-55
2023/07/14 05:17:36;;;;;;;;;8.00;4.75;;;;;24.53;38.72;101038.34;4945078;28;45337;-55
2023/07/14 05:20:03;;;;;;;;;7.25;5.00;;;;;24.53;38.69;101038.34;4947263;28;45829;-54
2023/07/14 05:22:28;;;;;;;;;7.50;5.25;;;;;24.53;39.13;101033.03;4945201;28;45104;-54
2023/07/14 05:24:54;;;;;;;;;6.25;5.50;;;;;24.52;38.88;101021.59;4930324;28;45354;-54
2023/07/14 05:27:20;;;;;;;;;6.25;5.00;;;;;24.52;39.29;101010.19;4921650;28;45497;-54
2023/07/14 05:29:46;;;;;;;;;7.50;6.00;;;;;24.50;39.28;101012.09;4920849;28;45446;-55
2023/07/14 05:32:12;;;;;;;;;7.25;4.50;;;;;24.49;38.77;101023.63;4926200;28;45383;-54
2023/07/14 05:34:37;;;;;;;;;4.50;4.50;;;;;24.47;38.76;101033.47;4928825;28;45295;-55
2023/07/14 05:37:02;;;;;;;;;6.00;4.00;;;;;24.47;39.21;101029.03;4922676;28;45399;-54
2023/07/14 05:39:28;;;;;;;;;5.00;3.00;;;;;24.46;39.15;101032.66;4921546;28;46463;-55
2023/07/14 05:41:54;;;;;;;;;5.50;4.00;;;;;24.42;38.91;101025.84;4923311;28;45374;-55
2023/07/14 05:44:19;;;;;;;;;2.00;0.25;;;;;24.41;39.07;101033.91;4922759;28;45351;-53
2023/07/14 05:46:44;;;;;;;;;5.50;4.75;;;;;24.41;39.22;101036.56;4921345;28;45363;-54
2023/07/14 05:49:10;;;;;;;;;3.50;3.50;;;;;24.41;39.19;101031.25;4921707;28;46574;-53
2023/07/14 05:51:35;;;;;;;;;3.25;3.25;;;;;24.42;39.02;101043.56;4922060;28;57417;-55
2023/07/14 05:54:00;;;;;;;;;4.00;4.00;;;;;24.41;38.84;101033.91;4913830;28;45350;-54
2023/07/14 05:56:25;;;;;;;;;7.00;3.25;;;;;24.40;38.76;101027.75;4934854;28;53516;-54
2023/07/14 05:58:51;;;;;;;;;4.00;3.00;;;;;24.39;38.65;101026.91;4936345;28;45392;-55
2023/07/14 06:01:16;;;;;;;;;6.00;4.00;;;;;24.38;38.68;101030.53;4933877;28;45419;-54
2023/07/14 06:03:42;;;;;;;;;3.75;3.75;;;;;24.38;38.48;101016.41;4929185;28;45309;-55
2023/07/14 06:06:07;;;;;;;;;4.25;3.75;;;;;24.37;39.05;101015.56;4934222;28;45324;-55
2023/07/14 06:08:33;;;;;;;;;3.00;3.00;;;;;24.35;39.07;100992.81;4927118;28;55646;-55
2023/07/14 06:10:58;;;;;;;;;0.25;0.00;;;;;24.34;38.30;101015.78;4921220;28;45214;-54
2023/07/14 06:13:23;;;;;;;;;3.50;3.50;;;;;24.32;38.52;101038.03;4921061;28;45447;-55
2023/07/14 06:15:49;;;;;;;;;4.00;4.00;;;;;24.31;38.78;101026.56;4924788;28;45214;-55
2023/07/14 06:18:15;;;;;;;;;7.00;4.50;;;;;24.30;38.67;101009.00;4904192;28;45336;-54
2023/07/14 06:20:41;;;;;;;;;4.50;3.50;;;;;24.28;38.88;101005.63;4920737;28;45671;-54
2023/07/14 06:23:07;;;;;;;;;4.00;4.00;;;;;24.28;39.01;101028.59;4920990;28;45248;-55
2023/07/14 06:25:33;;;;;;;;;3.00;3.00;;;;;24.24;38.67;101030.59;4924033;28;45325;-54
2023/07/14 06:27:59;;;;;;;;;4.00;4.00;;;;;24.25;38.76;101027.00;4920574;28;46340;-55
2023/07/14 06:30:25;;;;;;;;;4.00;3.50;;;;;24.28;38.67;101036.53;4910178;28;45993;-55
2023/07/14 06:32:51;;;;;;;;;3.00;3.00;;;;;24.27;39.05;101016.31;4889435;28;45372;-54
2023/07/14 06:35:17;;;;;;;;;3.00;3.00;;;;;24.28;38.62;101010.91;4924461;28;45309;-54
2023/07/14 06:37:42;;;;;;;;;0.00;0.00;;;;;24.27;38.48;100990.69;4928561;28;45276;-55
2023/07/14 06:40:09;;;;;;;;;6.50;4.00;;;;;24.26;38.84;100985.47;4922903;28;45195;-53
2023/07/14 06:42:34;;;;;;;;;4.50;4.50;;;;;24.22;38.29;100988.34;4920430;28;45299;-54
2023/07/14 06:45:00;;;;;;;;;5.00;4.00;;;;;24.20;38.34;100994.69;4920815;28;45180;-55
2023/07/14 06:47:25;;;;;;;;;3.25;3.00;;;;;24.19;38.21;100999.16;4920683;28;45323;-52
2023/07/14 06:49:51;;;;;;;;;5.00;4.00;;;;;24.19;38.62;100999.16;4920391;28;51795;-55
2023/07/14 06:52:16;;;;;;;;;4.00;4.00;;;;;24.19;38.65;100985.06;4920394;28;45807;-55
2023/07/14 06:54:44;;;;;;;;;5.50;5.00;;;;;24.18;38.16;100988.66;4904033;28;45322;-56
2023/07/14 06:57:10;;;;;;;;;5.00;4.75;;;;;24.16;38.39;100986.09;4922930;28;46103;-55
2023/07/14 06:59:36;;;;;;;;;9.75;4.25;;;;;24.14;38.53;100980.09;4924700;28;45410;-55
2023/07/14 07:02:01;;;;;;;;;6.00;4.00;;;;;24.11;38.38;100980.28;4922352;28;45299;-53
2023/07/14 07:04:27;;;;;;;;;5.00;4.00;;;;;24.11;38.26;100990.03;4920123;28;45495;-55
2023/07/14 07:06:53;;;;;;;;;5.00;5.00;;;;;24.08;38.75;100978.72;4920552;28;47687;-54
2023/07/14 07:09:19;;;;;;;;;5.00;3.75;;;;;24.09;38.15;100975.09;4922962;28;45356;-54
2023/07/14 07:11:45;;;;;;;;;6.00;4.50;;;;;24.11;38.25;100974.13;4922337;28;45332;-55
2023/07/14 07:14:10;;;;;;;;;6.75;4.00;;;;;24.07;38.25;100963.78;4925510;28;45485;-55
2023/07/14 07:16:36;;;;;;;;;5.00;4.25;;;;;24.08;38.21;100960.19;4925637;28;46781;-54
2023/07/14 07:19:01;;;;;;;;;8.75;5.00;;;;;24.07;38.31;100963.78;4922418;28;45809;-54
2023/07/14 07:21:27;;;;;;;;;6.25;4.75;;;;;24.08;38.63;100954.88;4925318;28;45238;-54
2023/07/14 07:23:52;;;;;;;;;5.00;3.50;;;;;24.07;37.99;100958.47;4930613;28;45621;-54
2023/07/14 07:26:17;;;;;;;;;6.00;4.00;;;;;24.07;38.61;100958.47;4941512;28;45190;-53
2023/07/14 07:28:43;;;;;;;;;7.50;5.00;;;;;24.07;38.25;100963.78;4940282;28;44662;-57
2023/07/14 07:31:11;;;;;;;;;7.33;4.67;;;;;24.08;38.67;100954.03;4927509;28;57853;-54
2023/07/14 07:33:37;;;;;;;;;4.00;4.00;;;;;24.08;38.43;100951.38;4923328;28;45446;-54
2023/07/14 07:36:14;;;;;;;;;5.00;5.00;;;;;24.08;38.26;100949.59;4920407;28;46033;-55
2023/07/14 07:38:48;;;;;;;;;5.25;5.00;;;;;24.08;38.23;100949.59;4902983;28;45265;-54
2023/07/14 07:41:15;;;;;;;;;6.00;5.00;;;;;24.11;38.22;100947.66;4921494;28;45300;-54
2023/07/14 07:43:41;;;;;;;;;7.25;4.50;;;;;24.09;38.37;100948.59;4922258;28;45339;-54
2023/07/14 07:46:07;;;;;;;;;6.75;4.50;;;;;24.12;38.30;100944.06;4919538;28;45616;-53
2023/07/14 07:48:34;;;;;;;;;5.00;5.00;;;;;24.12;38.56;100946.72;4919642;28;45322;-55
2023/07/14 07:50:59;;;;;;;;;3.00;3.00;;;;;24.13;38.67;100943.97;4922505;28;45333;-55
2023/07/14 07:53:25;;;;;;;;;3.75;3.75;;;;;24.17;38.34;100936.66;4911870;28;45604;-54
2023/07/14 07:55:57;;;;;;;;;5.25;3.75;;;;;24.18;38.34;100919.81;4909517;28;45385;-54
2023/07/14 07:58:25;;;;;;;;;3.25;3.25;;;;;24.23;38.48;100920.31;4922508;28;45392;-53
2023/07/14 08:00:56;;;;;;;;;5.25;2.75;;;;;24.26;38.06;100914.81;4919834;28;45379;-56
2023/07/14 08:03:21;;;;;;;;;7.00;4.00;;;;;24.27;38.03;100903.28;4920119;28;45335;-54
2023/07/14 08:05:47;;;;;;;;;4.75;4.50;;;;;24.32;38.21;100898.47;4924303;28;45607;-55
2023/07/14 08:08:12;;;;;;;;;3.00;3.00;;;;;24.35;38.16;100900.94;4933120;28;45395;-55
2023/07/14 08:10:42;;;;;;;;;5.25;4.00;;;;;24.35;37.81;100894.78;4940558;28;45312;-54
2023/07/14 08:13:12;;;;;;;;;5.75;4.00;;;;;24.39;37.99;100890.94;4940770;28;44868;-57
2023/07/14 08:15:38;;;;;;;;;7.00;4.00;;;;;24.37;38.13;100885.78;4939476;28;46303;-54
2023/07/14 08:18:06;;;;;;;;;4.25;4.00;;;;;24.41;38.12;100886.41;4896299;28;45316;-54
2023/07/14 08:20:32;;;;;;;;;5.25;5.00;;;;;24.43;38.20;100891.56;4931255;28;45344;-54
2023/07/14 08:22:57;;;;;;;;;4.00;4.00;;;;;24.45;37.45;100894.97;4929404;28;45655;-55
2023/07/14 08:25:23;;;;;;;;;4.00;4.00;;;;;24.49;37.85;100896.47;4928935;28;62300;-55
2023/07/14 08:27:49;;;;;;;;;5.75;5.75;;;;;24.53;37.26;100900.56;4931559;28;45264;-56
2023/07/14 08:30:15;;;;;;;;;8.25;6.00;;;;;24.54;37.65;100896.97;4928765;28;45225;-55
2023/07/14 08:32:40;;;;;;;;;4.75;3.75;;;;;24.54;37.29;100900.47;4922742;28;45361;-54
2023/07/14 08:35:06;;;;;;;;;3.00;3.00;;;;;24.58;37.24;100890.50;4922986;28;46488;-55
2023/07/14 08:37:32;;;;;;;;;4.50;3.75;;;;;24.61;37.00;100892.06;4929926;28;45682;-54
2023/07/14 08:39:57;;;;;;;;;5.00;5.00;;;;;24.63;37.48;100879.56;4931008;28;45434;-54
2023/07/14 08:42:31;;;;;;;;;5.00;5.00;;;;;24.63;37.41;100880.41;4942265;28;44811;-54
2023/07/14 08:45:16;;;;;;;;;6.00;4.50;;;;;24.67;36.72;100879.22;4939897;28;45283;-54
2023/07/14 08:48:09;;;;;;;;;5.25;4.00;;;;;24.73;37.01;100874.47;4942118;28;44941;-54
2023/07/14 08:50:36;;;;;;;;;5.00;4.00;;;;;24.77;37.32;100870.63;4941578;28;45232;-55
2023/07/14 08:53:08;;;;;;;;;5.50;4.00;;;;;24.82;36.54;100858.72;4933535;28;45665;-54
2023/07/14 08:55:38;;;;;;;;;4.50;4.50;;;;;24.85;36.88;100852.38;4912143;28;46675;-54
2023/07/14 08:58:14;;;;;;;;;4.25;3.00;;;;;24.91;36.12;100862.50;4930235;28;45311;-53
2023/07/14 09:00:59;;;;;;;;;7.00;3.25;;;;;24.93;35.85;100850.00;4933393;28;45292;-55
2023/07/14 09:03:44;;;;;;;;;3.75;3.25;;;;;24.96;35.63;100844.47;4938690;28;45371;-55
2023/07/14 09:06:30;;;;;;;;;7.25;3.75;;;;;25.00;35.50;100837.97;4936405;28;46506;-54
2023/07/14 09:08:56;;;;;;;;;3.00;3.00;;;;;25.01;35.36;100836.19;4940066;28;45300;-54
2023/07/14 09:11:44;;;;;;;;;4.25;3.25;;;;;25.08;35.33;100831.25;4942949;28;44713;-56
2023/07/14 09:14:46;;;;;;;;;7.75;3.50;;;;;25.09;35.28;100822.31;4942157;28;45205;-55
2023/07/14 09:17:33;;;;;;;;;2.00;2.00;;;;;25.13;35.90;100822.00;4936904;28;45703;-56
2023/07/14 09:20:24;;;;;;;;;2.00;2.00;;;;;25.16;35.13;100820.91;4930847;28;45857;-54
2023/07/14 09:23:08;;;;;;;;;5.50;3.00;;;;;25.20;35.59;100818.88;4932038;28;45251;-52
2023/07/14 09:25:42;;;;;;;;;4.50;3.25;;;;;25.21;34.97;100818.75;4935821;28;45393;-55
2023/07/14 09:28:13;;;;;;;;;3.75;3.25;;;;;25.24;35.27;100815.03;4922563;28;46507;-55
2023/07/14 09:30:39;;;;;;;;;5.00;3.50;;;;;25.24;35.42;100802.59;4922183;28;45725;-55
2023/07/14 09:33:09;;;;;;;;;4.50;3.00;;;;;25.24;35.15;100805.25;4909696;28;45295;-55
2023/07/14 09:35:34;;;;;;;;;5.25;3.00;;;;;25.25;34.61;100801.66;4923264;28;45406;-54
2023/07/14 09:38:10;;;;;;;;;6.75;4.00;;;;;25.27;34.48;100798.88;4922091;28;45569;-55
2023/07/14 09:40:38;;;;;;;;;3.00;3.00;;;;;25.27;34.51;100810.34;4922205;28;45330;-54
2023/07/14 09:43:05;;;;;;;;;2.50;2.00;;;;;25.27;34.51;100798.88;4925945;28;45316;-55
2023/07/14 09:45:38;;;;;;;;;4.00;3.25;;;;;25.28;34.21;100790.81;4909096;28;45442;-55
2023/07/14 09:48:19;;;;;;;;;5.00;2.50;;;;;25.29;34.38;100797.81;4927229;28;46976;-54
2023/07/14 09:51:09;;;;;;;;;3.75;3.75;;;;;25.30;34.61;100786.22;4926719;28;45773;-53
2023/07/14 09:53:37;;;;;;;;;2.50;2.25;;;;;25.30;34.09;100786.22;4923641;28;45236;-53
2023/07/14 09:56:10;;;;;;;;;3.00;3.00;;;;;25.29;33.68;100765.97;4923867;28;45428;-54
2023/07/14 09:58:36;;;;;;;;;5.00;3.00;;;;;25.29;34.15;100771.28;4903260;28;46433;-53
2023/07/14 10:01:06;;;;;;;;;3.00;3.00;;;;;25.32;33.56;100767.53;4921414;28;45319;-53
2023/07/14 10:03:42;;;;;;;;;4.50;4.00;;;;;25.34;33.60;100756.81;4921153;28;45462;-55
2023/07/14 10:06:23;;;;;;;;;6.00;4.00;;;;;25.32;34.05;100757.75;4925278;28;45408;-54
2023/07/14 10:08:59;;;;;;;;;2.50;2.50;;;;;25.35;33.58;100745.22;4921848;28;47218;-53
2023/07/14 10:11:50;;;;;;;;;3.75;3.00;;;;;25.35;33.60;100742.56;4921175;28;45643;-55
2023/07/14 10:14:15;;;;;;;;;3.00;2.25;;;;;25.35;33.24;100735.47;4921874;28;45193;-55
2023/07/14 10:16:43;;;;;;;;;4.67;4.33;;;;;25.36;33.18;100729.19;4926737;28;45200;-54
2023/07/14 10:19:18;;;;;;;;;4.25;3.00;;;;;25.36;33.23;100725.69;4911085;28;47144;-55
2023/07/14 10:21:59;;;;;;;;;4.00;4.00;;;;;25.38;33.39;100721.94;4926448;28;45822;-53
2023/07/14 10:24:27;;;;;;;;;7.00;3.25;;;;;25.41;33.45;100715.63;4922357;28;45253;-55
2023/07/14 10:26:58;;;;;;;;;3.25;3.00;;;;;25.42;33.52;100715.47;4923820;28;45554;-55
2023/07/14 10:29:26;;;;;;;;;2.25;2.25;;;;;25.43;33.41;100717.19;4904639;28;46474;-55
2023/07/14 10:32:03;;;;;;;;;4.00;3.75;;;;;25.43;33.45;100709.22;4921260;28;45253;-55
2023/07/14 10:34:52;;;;;;;;;4.50;3.00;;;;;25.47;33.52;100709.81;4921558;28;45434;-54
2023/07/14 10:37:24;;;;;;;;;2.75;2.75;;;;;25.47;33.92;100704.50;4926800;28;45391;-55
2023/07/14 10:39:54;;;;;;;;;4.50;4.00;;;;;25.48;33.12;100700.88;4921256;28;46613;-55
2023/07/14 10:42:25;;;;;;;;;5.00;3.00;;;;;25.49;33.50;100689.31;4906239;28;45394;-53
2023/07/14 10:44:52;;;;;;;;;6.00;4.00;;;;;25.49;33.51;100685.81;4917714;28;44828;-54
2023/07/14 10:47:21;;;;;;;;;3.00;3.00;;;;;25.50;33.79;100693.66;4933891;28;45574;-54
2023/07/14 10:49:57;;;;;;;;;4.50;2.00;;;;;25.52;33.23;100681.09;4937764;28;45219;-54
2023/07/14 10:52:37;;;;;;;;;3.00;3.00;;;;;25.53;33.78;100664.19;4937647;28;44980;-58
2023/07/14 10:55:17;;;;;;;;;3.50;3.00;;;;;25.54;33.54;100663.25;4933355;28;45392;-55
2023/07/14 10:58:13;;;;;;;;;2.75;2.25;;;;;25.53;33.53;100656.25;4933635;28;45237;-55
2023/07/14 11:00:45;;;;;;;;;2.00;2.00;;;;;25.55;33.78;100656.97;4937861;28;46183;-54
2023/07/14 11:03:18;;;;;;;;;2.00;2.00;;;;;25.57;33.47;100647.09;4940406;28;45005;-56
2023/07/14 11:05:57;;;;;;;;;5.00;3.00;;;;;25.57;33.25;100636.47;4934367;28;45375;-54
2023/07/14 11:08:25;;;;;;;;;4.25;3.00;;;;;25.59;33.44;100634.53;4922885;28;45521;-55
2023/07/14 11:10:57;;;;;;;;;2.00;2.00;;;;;25.59;33.03;100634.53;4922745;28;45419;-53
2023/07/14 11:13:32;;;;;;;;;3.75;3.00;;;;;25.60;33.45;100625.63;4922530;28;45748;-55
2023/07/14 11:16:08;;;;;;;;;3.00;3.00;;;;;25.62;33.38;100629.00;4930136;28;45382;-55
2023/07/14 11:19:00;;;;;;;;;2.00;2.00;;;;;25.64;33.68;100615.59;4923100;28;45327;-55
2023/07/14 11:21:34;;;;;;;;;3.75;3.00;;;;;25.66;33.24;100618.09;4938938;28;45630;-53
2023/07/14 11:24:38;;;;;;;;;3.75;2.25;;;;;25.66;33.45;100603.03;4925524;28;45334;-55
2023/07/14 11:27:09;;;;;;;;;7.00;3.00;;;;;25.68;33.15;100614.38;4922446;28;45355;-53
2023/07/14 11:29:47;;;;;;;;;2.00;2.00;;;;;25.69;33.25;100601.94;4922939;28;45328;-54
2023/07/14 11:32:20;;;;;;;;;2.75;2.75;;;;;25.69;33.04;100601.94;4921534;28;46247;-53
2023/07/14 11:35:02;;;;;;;;;3.25;3.00;;;;;25.70;33.10;100593.00;4922821;28;45690;-55
2023/07/14 11:38:08;;;;;;;;;3.00;3.00;;;;;25.65;32.91;100569.50;4921537;28;45478;-53